createdAt,value
2023-01-13T00:00:31.419Z,95963.44
2023-01-13T00:03:33.609Z,95961.91
2023-01-13T00:06:35.599Z,95955.84
2023-01-13T00:09:37.535Z,95940.13
2023-01-13T00:12:41.128Z,95934.06
2023-01-13T00:15:43.781Z,95931.41
2023-01-13T00:18:46.289Z,95935.75
2023-01-13T00:21:48.147Z,95939.63
2023-01-13T00:24:50.347Z,95938.09
2023-01-13T00:27:52.222Z,95941.31
2023-01-13T00:30:58.806Z,95937.38
2023-01-13T00:34:01.552Z,95924.91
2023-01-13T00:37:03.586Z,95913.34
2023-01-13T00:40:06.339Z,95919.06
2023-01-13T00:43:24.036Z,95918.34
2023-01-13T00:46:26.089Z,95917.78
2023-01-13T00:49:28.173Z,95918.91
2023-01-13T00:52:32.428Z,95919.97
2023-01-13T00:55:34.419Z,95906.03
2023-01-13T00:58:36.810Z,95901.22
2023-01-13T01:01:39.225Z,95915.59
2023-01-13T01:04:41.605Z,95890.06
2023-01-13T01:07:43.553Z,95883.59
2023-01-13T01:10:45.549Z,95891.44
2023-01-13T01:13:48.324Z,95901.19
2023-01-13T01:16:50.213Z,95902.69
2023-01-13T01:19:52.379Z,95891.81
2023-01-13T01:22:54.353Z,95871.09
2023-01-13T01:26:01.716Z,95878.25
2023-01-13T01:29:03.696Z,95890.22
2023-01-13T01:32:05.958Z,95863.13
2023-01-13T01:35:08.318Z,95872.31
2023-01-13T01:38:10.259Z,95862.28
2023-01-13T01:41:18.646Z,95895.34
2023-01-13T01:44:42.402Z,95886.41
2023-01-13T01:47:48.376Z,95898.53
2023-01-13T01:50:50.556Z,95875.22
2023-01-13T01:53:57.297Z,95874.78
2023-01-13T01:57:02.086Z,95851.28
2023-01-13T02:00:06.082Z,95858.66
2023-01-13T02:03:16.518Z,95858.50
2023-01-13T02:06:19.277Z,95870.22
2023-01-13T02:09:21.210Z,95865.13
2023-01-13T02:12:30.582Z,95852.78
2023-01-13T02:15:43.263Z,95860.03
2023-01-13T02:19:29.118Z,95867.16
2023-01-13T02:22:46.617Z,95845.28
2023-01-13T02:26:00.755Z,95853.84
2023-01-13T02:29:59.249Z,95852.03
2023-01-13T02:33:30.635Z,95842.00
2023-01-13T02:36:46.849Z,95842.16
2023-01-13T02:40:02.520Z,95837.69
2023-01-13T02:43:42.386Z,95837.47
2023-01-13T02:46:52.148Z,95826.59
2023-01-13T02:50:03.112Z,95826.97
2023-01-13T02:53:14.219Z,95835.94
2023-01-13T02:56:17.733Z,95813.44
2023-01-13T02:59:20.991Z,95817.31
2023-01-13T03:02:24.405Z,95802.25
2023-01-13T03:05:26.853Z,95810.94
2023-01-13T03:08:50.639Z,95800.44
2023-01-13T03:12:28.853Z,95804.69
2023-01-13T03:16:03.579Z,95806.53
2023-01-13T03:19:11.093Z,95798.47
2023-01-13T03:22:31.635Z,95807.22
2023-01-13T03:25:48.339Z,95792.84
2023-01-13T03:28:56.926Z,95802.47
2023-01-13T03:32:11.081Z,95788.97
2023-01-13T03:35:20.758Z,95790.63
2023-01-13T03:38:31.896Z,95794.91
2023-01-13T03:41:43.688Z,95777.34
2023-01-13T03:44:52.836Z,95771.88
2023-01-13T03:47:57.809Z,95778.03
2023-01-13T03:51:07.103Z,95784.69
2023-01-13T03:54:14.082Z,95787.75
2023-01-13T03:57:19.956Z,95786.91
2023-01-13T04:00:31.775Z,95778.88
2023-01-13T04:03:42.151Z,95767.53
2023-01-13T04:07:06.286Z,95780.22
2023-01-13T04:10:10.365Z,95778.41
2023-01-13T04:13:17.184Z,95775.88
2023-01-13T04:16:18.967Z,95791.06
2023-01-13T04:19:21.856Z,95777.78
2023-01-13T04:22:23.547Z,95792.31
2023-01-13T04:25:25.277Z,95790.28
2023-01-13T04:28:27.081Z,95774.44
2023-01-13T04:31:29.197Z,95761.81
2023-01-13T04:34:31.367Z,95778.22
2023-01-13T04:37:33.564Z,95778.72
2023-01-13T04:40:35.504Z,95762.56
2023-01-13T04:43:37.246Z,95766.75
2023-01-13T04:46:38.966Z,95755.56
2023-01-13T04:49:40.690Z,95759.25
2023-01-13T04:52:42.393Z,95777.47
2023-01-13T04:55:44.750Z,95756.97
2023-01-13T04:58:46.588Z,95777.81
2023-01-13T05:01:48.599Z,95775.66
2023-01-13T05:04:50.541Z,95774.66
2023-01-13T05:07:52.376Z,95776.88
2023-01-13T05:10:59.874Z,95776.53
2023-01-13T05:14:20.271Z,95771.38
2023-01-13T05:17:24.994Z,95769.91
2023-01-13T05:20:27.116Z,95762.09
2023-01-13T05:23:47.393Z,95755.28
2023-01-13T05:26:49.638Z,95738.97
2023-01-13T05:29:52.026Z,95742.28
2023-01-13T05:32:54.564Z,95748.63
2023-01-13T05:35:56.966Z,95754.34
2023-01-13T05:38:58.851Z,95738.31
2023-01-13T05:42:32.963Z,95743.94
2023-01-13T05:45:35.135Z,95747.16
2023-01-13T05:48:41.861Z,95752.97
2023-01-13T05:51:43.661Z,95748.13
2023-01-13T05:54:45.952Z,95742.66
2023-01-13T05:57:47.831Z,95738.31
2023-01-13T06:00:50.181Z,95742.16
2023-01-13T06:03:52.377Z,95748.03
2023-01-13T06:06:56.110Z,95755.47
2023-01-13T06:09:57.987Z,95761.88
2023-01-13T06:12:59.795Z,95767.88
2023-01-13T06:16:01.803Z,95757.66
2023-01-13T06:19:09.165Z,95759.34
2023-01-13T06:22:23.568Z,95779.56
2023-01-13T06:25:47.225Z,95774.75
2023-01-13T06:28:50.176Z,95765.38
2023-01-13T06:31:52.829Z,95760.25
2023-01-13T06:35:05.422Z,95784.06
2023-01-13T06:38:13.829Z,95784.41
2023-01-13T06:41:18.263Z,95777.91
2023-01-13T06:44:21.966Z,95763.69
2023-01-13T06:47:27.377Z,95793.22
2023-01-13T06:50:30.575Z,95791.56
2023-01-13T06:53:33.309Z,95796.06
2023-01-13T06:56:35.551Z,95766.91
2023-01-13T06:59:37.691Z,95788.25
2023-01-13T07:02:39.549Z,95781.75
2023-01-13T07:05:43.704Z,95785.72
2023-01-13T07:08:51.490Z,95752.75
2023-01-13T07:11:53.227Z,95762.41
2023-01-13T07:15:14.366Z,95764.88
2023-01-13T07:18:16.174Z,95765.56
2023-01-13T07:21:20.171Z,95779.22
2023-01-13T07:24:24.137Z,95756.91
2023-01-13T07:27:29.547Z,95775.09
2023-01-13T07:30:50.364Z,95788.06
2023-01-13T07:34:06.105Z,95787.56
2023-01-13T07:37:08.464Z,95774.75
2023-01-13T07:40:12.977Z,95793.22
2023-01-13T07:43:34.218Z,95780.88
2023-01-13T07:46:39.910Z,95782.44
2023-01-13T07:49:41.951Z,95791.56
2023-01-13T07:52:43.987Z,95785.41
2023-01-13T07:55:48.704Z,95777.59
2023-01-13T07:58:53.045Z,95771.06
2023-01-13T08:02:07.734Z,95773.72
2023-01-13T08:05:10.185Z,95780.72
2023-01-13T08:08:12.987Z,95797.09
2023-01-13T08:11:18.853Z,95800.91
2023-01-13T08:14:28.064Z,95787.06
2023-01-13T08:17:30.864Z,95807.94
2023-01-13T08:20:43.027Z,95804.63
2023-01-13T08:23:47.903Z,95801.94
2023-01-13T08:26:50.239Z,95814.63
2023-01-13T08:29:56.226Z,95814.47
2023-01-13T08:32:58.140Z,95805.31
2023-01-13T08:36:07.089Z,95784.78
2023-01-13T08:39:11.381Z,95803.47
2023-01-13T08:42:16.859Z,95813.69
2023-01-13T08:45:21.106Z,95790.97
2023-01-13T08:48:24.636Z,95817.97
2023-01-13T08:51:37.348Z,95813.34
2023-01-13T08:55:06.978Z,95819.03
2023-01-13T08:58:15.720Z,95810.00
2023-01-13T09:01:23.872Z,95819.19
2023-01-13T09:04:29.452Z,95830.19
2023-01-13T09:07:47.308Z,95824.88
2023-01-13T09:11:28.666Z,95815.84
2023-01-13T09:18:30.085Z,95828.53
2023-01-13T09:21:44.400Z,95822.69
2023-01-13T09:25:00.027Z,95830.25
2023-01-13T09:28:04.174Z,95840.41
2023-01-13T09:31:14.762Z,95821.22
2023-01-13T09:34:38.777Z,95836.91
2023-01-13T09:37:42.130Z,95832.38
2023-01-13T09:40:51.108Z,95831.22
2023-01-13T09:43:58.991Z,95831.22
2023-01-13T09:47:04.437Z,95821.25
2023-01-13T09:50:24.637Z,95819.22
2023-01-13T09:53:37.379Z,95839.75
2023-01-13T09:56:39.521Z,95819.41
2023-01-13T09:59:45.397Z,95811.94
2023-01-13T10:03:08.519Z,95829.66
2023-01-13T10:06:19.351Z,95812.31
2023-01-13T10:09:26.399Z,95819.50
2023-01-13T10:12:49.067Z,95800.16
2023-01-13T10:16:03.223Z,95793.53
2023-01-13T10:19:30.282Z,95807.38
2023-01-13T10:22:52.042Z,95803.19
2023-01-13T10:26:07.298Z,95806.69
2023-01-13T10:29:28.409Z,95780.69
2023-01-13T10:32:30.721Z,95790.53
2023-01-13T10:35:50.823Z,95799.22
2023-01-13T10:38:59.177Z,95777.19
2023-01-13T10:42:06.975Z,95798.56
2023-01-13T10:45:24.542Z,95784.06
2023-01-13T10:48:42.193Z,95775.84
2023-01-13T10:51:44.680Z,95768.84
2023-01-13T10:54:53.265Z,95782.69
2023-01-13T10:57:55.408Z,95788.03
2023-01-13T11:01:04.720Z,95777.84
2023-01-13T11:04:28.098Z,95776.38
2023-01-13T11:07:40.281Z,95770.03
2023-01-13T11:10:47.315Z,95775.00
2023-01-13T11:14:10.804Z,95765.53
2023-01-13T11:17:35.994Z,95775.38
2023-01-13T11:20:41.441Z,95773.00
2023-01-13T11:23:50.279Z,95754.31
2023-01-13T11:27:07.651Z,95771.50
2023-01-13T11:30:24.836Z,95789.66
2023-01-13T11:33:37.792Z,95783.69
2023-01-13T11:36:53.074Z,95767.34
2023-01-13T11:39:59.582Z,95779.34
2023-01-13T11:43:32.900Z,95771.66
2023-01-13T11:46:38.607Z,95760.84
2023-01-13T11:49:48.736Z,95782.03
2023-01-13T11:53:41.880Z,95778.34
2023-01-13T11:57:12.125Z,95778.50
2023-01-13T12:00:39.043Z,95775.16
2023-01-13T12:03:47.850Z,95770.66
2023-01-13T12:07:05.959Z,95775.16
2023-01-13T12:10:44.288Z,95757.63
2023-01-13T12:13:57.510Z,95770.31
2023-01-13T12:17:11.822Z,95778.50
2023-01-13T12:20:33.784Z,95778.81
2023-01-13T12:23:43.811Z,95773.47
2023-01-13T12:26:54.715Z,95769.97
2023-01-13T12:30:00.037Z,95773.16
2023-01-13T12:33:24.637Z,95750.47
2023-01-13T12:36:35.914Z,95762.63
2023-01-13T12:39:42.999Z,95764.94
2023-01-13T12:43:34.868Z,95752.28
2023-01-13T12:46:53.403Z,95747.63
2023-01-13T12:50:36.547Z,95776.97
2023-01-13T12:53:38.794Z,95764.63
2023-01-13T12:56:45.388Z,95754.47
2023-01-13T12:59:59.434Z,95763.66
2023-01-13T13:03:18.591Z,95757.31
2023-01-13T13:06:26.935Z,95758.31
2023-01-13T13:09:46.287Z,95759.00
2023-01-13T13:13:21.842Z,95781.66
2023-01-13T13:16:26.535Z,95860.28
2023-01-13T13:19:31.112Z,95889.16
2023-01-13T13:22:44.845Z,95890.09
2023-01-13T13:26:05.466Z,95899.25
2023-01-13T13:29:16.355Z,95921.00
2023-01-13T13:32:36.116Z,95936.31
2023-01-13T13:37:11.061Z,95951.72
2023-01-13T13:40:30.397Z,95980.66
2023-01-13T13:44:19.809Z,95985.38
2023-01-13T13:47:21.960Z,96008.47
2023-01-13T13:50:23.949Z,95989.31
2023-01-13T13:53:30.016Z,95981.25
2023-01-13T13:56:38.333Z,95984.31
2023-01-13T13:59:39.984Z,95980.66
2023-01-13T14:02:48.447Z,95993.09
2023-01-13T14:06:02.642Z,95996.44
2023-01-13T14:09:04.354Z,95992.41
2023-01-13T14:12:14.980Z,95981.78
2023-01-13T14:15:27.258Z,95970.78
2023-01-13T14:18:32.243Z,95968.97
2023-01-13T14:21:33.856Z,95962.06
2023-01-13T14:24:45.975Z,95974.50
2023-01-13T14:27:47.580Z,95977.03
2023-01-13T14:30:50.782Z,95980.78
2023-01-13T14:33:57.449Z,95993.81
2023-01-13T14:36:59.609Z,95998.28
2023-01-13T14:40:01.178Z,95998.38
2023-01-13T14:43:10.255Z,95988.84
2023-01-13T14:46:12.456Z,96009.28
2023-01-13T14:49:19.740Z,96002.41
2023-01-13T14:52:24.862Z,95999.91
2023-01-13T14:55:37.345Z,96000.03
2023-01-13T14:58:40.120Z,95985.22
2023-01-13T15:01:42.309Z,96003.09
2023-01-13T15:04:43.995Z,96014.94
2023-01-13T15:07:56.126Z,96008.25
2023-01-13T15:11:03.440Z,96011.03
2023-01-13T15:14:10.633Z,96022.34
2023-01-13T15:17:17.435Z,96025.41
2023-01-13T15:20:21.505Z,96030.97
2023-01-13T15:23:23.087Z,96033.63
2023-01-13T15:26:27.211Z,96045.22
2023-01-13T15:29:29.290Z,96048.16
2023-01-13T15:32:30.997Z,96068.50
2023-01-13T15:35:33.506Z,96050.88
2023-01-13T15:38:36.214Z,96065.56
2023-01-13T15:41:56.356Z,96063.19
2023-01-13T15:45:17.915Z,96064.69
2023-01-13T15:48:24.441Z,96077.34
2023-01-13T15:51:26.150Z,96075.38
2023-01-13T15:54:27.688Z,96095.16
2023-01-13T15:57:32.571Z,96094.84
2023-01-13T16:00:34.251Z,96099.97
2023-01-13T16:03:35.839Z,96097.59
2023-01-13T16:06:37.407Z,96107.72
2023-01-13T16:09:39.028Z,96093.00
2023-01-13T16:12:40.595Z,96095.94
2023-01-13T16:15:51.136Z,96113.88
2023-01-13T16:18:53.940Z,96119.56
2023-01-13T16:21:55.480Z,96124.25
2023-01-13T16:24:57.220Z,96127.09
2023-01-13T16:27:59.064Z,96141.19
2023-01-13T16:31:16.124Z,96148.66
2023-01-13T16:34:19.011Z,96146.66
2023-01-13T16:37:23.900Z,96157.34
2023-01-13T16:40:33.286Z,96175.44
2023-01-13T16:43:35.331Z,96171.09
2023-01-13T16:46:37.026Z,96176.50
2023-01-13T16:49:38.570Z,96170.75
2023-01-13T16:52:40.095Z,96180.13
2023-01-13T16:55:42.755Z,96178.31
2023-01-13T16:58:44.302Z,96178.31
2023-01-13T17:01:46.026Z,96178.19
2023-01-13T17:04:47.628Z,96182.38
2023-01-13T17:07:50.449Z,96183.22
2023-01-13T17:10:52.116Z,96180.56
2023-01-13T17:13:53.679Z,96190.81
2023-01-13T17:16:58.406Z,96188.28
2023-01-13T17:20:00.052Z,96198.84
2023-01-13T17:23:01.663Z,96197.19
2023-01-13T17:26:03.365Z,96207.75
2023-01-13T17:29:07.186Z,96217.50
2023-01-13T17:32:13.458Z,96221.72
2023-01-13T17:35:18.982Z,96222.78
2023-01-13T17:38:20.550Z,96220.16
2023-01-13T17:41:23.724Z,96216.66
2023-01-13T17:44:25.423Z,96214.00
2023-01-13T17:47:27.232Z,96214.84
2023-01-13T17:50:30.662Z,96204.16
2023-01-13T17:53:33.458Z,96201.50
2023-01-13T17:56:35.008Z,96194.28
2023-01-13T17:59:36.613Z,96190.66
2023-01-13T18:02:38.243Z,96185.75
2023-01-13T18:05:41.040Z,96204.72
2023-01-13T18:08:42.879Z,96207.25
2023-01-13T18:11:46.466Z,96212.31
2023-01-13T18:14:48.742Z,96220.25
2023-01-13T18:17:50.428Z,96222.63
2023-01-13T18:21:10.551Z,96231.31
2023-01-13T18:24:33.961Z,96233.22
2023-01-13T18:27:38.497Z,96233.81
2023-01-13T18:30:40.213Z,96250.44
2023-01-13T18:33:41.820Z,96241.31
2023-01-13T18:36:43.632Z,96256.09
2023-01-13T18:39:45.322Z,96267.50
2023-01-13T18:42:54.446Z,96264.13
2023-01-13T18:45:56.256Z,96285.19
2023-01-13T18:48:58.143Z,96270.16
2023-01-13T18:51:59.747Z,96267.50
2023-01-13T18:55:01.311Z,96261.50
2023-01-13T18:58:03.028Z,96258.28
2023-01-13T19:01:06.301Z,96264.53
2023-01-13T19:04:15.336Z,96277.88
2023-01-13T19:07:23.243Z,96282.22
2023-01-13T19:10:33.812Z,96275.34
2023-01-13T19:13:35.841Z,96285.59
2023-01-13T19:16:37.655Z,96276.56
2023-01-13T19:19:44.346Z,96279.22
2023-01-13T19:22:53.713Z,96286.50
2023-01-13T19:25:59.207Z,96293.88
2023-01-13T19:29:00.881Z,96307.34
2023-01-13T19:32:02.599Z,96294.94
2023-01-13T19:35:04.818Z,96309.88
2023-01-13T19:38:06.415Z,96327.97
2023-01-13T19:41:28.207Z,96321.72
2023-01-13T19:44:48.249Z,96337.94
2023-01-13T19:47:49.830Z,96360.94
2023-01-13T19:50:51.372Z,96360.56
2023-01-13T19:53:52.937Z,96364.03
2023-01-13T19:56:54.502Z,96358.13
2023-01-13T19:59:56.134Z,96365.84
2023-01-13T20:03:03.124Z,96366.19
2023-01-13T20:06:11.382Z,96363.06
2023-01-13T20:09:13.154Z,96355.13
2023-01-13T20:12:17.433Z,96357.03
2023-01-13T20:15:19.133Z,96364.25
2023-01-13T20:18:20.812Z,96371.50
2023-01-13T20:21:23.057Z,96376.22
2023-01-13T20:24:26.178Z,96366.47
2023-01-13T20:27:28.089Z,96371.88
2023-01-13T20:30:29.772Z,96387.66
2023-01-13T20:33:31.449Z,96397.13
2023-01-13T20:36:37.502Z,96413.31
2023-01-13T20:39:41.201Z,96424.13
2023-01-13T20:42:45.071Z,96413.91
2023-01-13T20:45:46.957Z,96415.00
2023-01-13T20:48:49.014Z,96434.25
2023-01-13T20:51:50.704Z,96416.94
2023-01-13T20:54:52.416Z,96427.78
2023-01-13T20:57:54.088Z,96430.06
2023-01-13T21:00:59.183Z,96435.00
2023-01-13T21:04:01.535Z,96449.09
2023-01-13T21:07:03.219Z,96435.97
2023-01-13T21:10:05.870Z,96458.84
2023-01-13T21:13:28.929Z,96464.03
2023-01-13T21:16:30.681Z,96485.56
2023-01-13T21:19:32.479Z,96478.59
2023-01-13T21:22:34.813Z,96486.63
2023-01-13T21:25:39.584Z,96480.97
2023-01-13T21:28:41.164Z,96483.75
2023-01-13T21:31:42.754Z,96487.72
2023-01-13T21:34:44.700Z,96501.31
2023-01-13T21:37:46.332Z,96500.69
2023-01-13T21:41:03.053Z,96509.69
2023-01-13T21:44:25.170Z,96506.34
2023-01-13T21:47:45.131Z,96504.03
2023-01-13T21:50:46.702Z,96507.03
2023-01-13T21:53:48.221Z,96507.97
2023-01-13T21:56:49.783Z,96515.34
2023-01-13T21:59:51.755Z,96524.22
2023-01-13T22:02:53.508Z,96534.19
2023-01-13T22:05:56.520Z,96534.28
2023-01-13T22:09:01.395Z,96533.69
2023-01-13T22:12:03.081Z,96531.25
2023-01-13T22:15:04.936Z,96528.75
2023-01-13T22:18:06.600Z,96531.25
2023-01-13T22:21:08.301Z,96534.88
2023-01-13T22:24:10.002Z,96529.81
2023-01-13T22:27:12.697Z,96521.59
2023-01-13T22:30:21.763Z,96538.69
2023-01-13T22:33:23.463Z,96545.91
2023-01-13T22:36:25.341Z,96555.63
2023-01-13T22:39:27.407Z,96557.31
2023-01-13T22:42:28.913Z,96560.81
2023-01-13T22:45:30.446Z,96560.81
2023-01-13T22:48:32.106Z,96562.88
2023-01-13T22:51:33.798Z,96565.63
2023-01-13T22:54:35.519Z,96558.75
2023-01-13T22:57:47.202Z,96563.19
2023-01-13T23:00:49.983Z,96569.56
2023-01-13T23:03:51.819Z,96565.22
2023-01-13T23:06:53.490Z,96568.72
2023-01-13T23:09:55.125Z,96565.34
2023-01-13T23:12:56.779Z,96548.13
2023-01-13T23:16:06.797Z,96566.06
2023-01-13T23:19:08.457Z,96567.03
2023-01-13T23:22:09.977Z,96566.19
2023-01-13T23:25:11.660Z,96557.50
2023-01-13T23:28:13.200Z,96549.47
2023-01-13T23:31:17.855Z,96552.84
2023-01-13T23:34:19.453Z,96546.72
2023-01-13T23:37:20.965Z,96552.84
2023-01-13T23:40:22.549Z,96550.09
2023-01-13T23:43:26.303Z,96551.53
2023-01-13T23:46:32.624Z,96553.13
2023-01-13T23:49:34.201Z,96549.53
2023-01-13T23:52:35.829Z,96560.94
2023-01-13T23:55:37.486Z,96566.22
2023-01-13T23:58:39.537Z,96562.75
